createdAt,value
2022-08-14T00:01:23.849Z,3.50
2022-08-14T00:04:51.876Z,3.80
2022-08-14T00:08:45.207Z,4.00
2022-08-14T00:12:23.612Z,3.40
2022-08-14T00:15:53.610Z,3.50
2022-08-14T00:19:23.384Z,3.80
2022-08-14T00:22:57.673Z,3.50
2022-08-14T00:26:26.131Z,3.40
2022-08-14T00:29:54.374Z,3.80
2022-08-14T00:33:22.579Z,3.60
2022-08-14T00:37:10.233Z,3.50
2022-08-14T00:40:39.027Z,3.80
2022-08-14T00:44:06.595Z,3.60
2022-08-14T00:47:43.053Z,3.60
2022-08-14T00:51:13.290Z,3.70
2022-08-14T00:54:41.753Z,3.30
2022-08-14T00:58:32.513Z,3.70
2022-08-14T01:02:03.347Z,3.60
2022-08-14T01:05:41.776Z,4.10
2022-08-14T01:09:18.855Z,4.10
2022-08-14T01:12:49.119Z,4.00
2022-08-14T01:16:19.417Z,4.30
2022-08-14T01:20:27.816Z,5.00
2022-08-14T01:23:57.263Z,4.00
2022-08-14T01:27:27.678Z,3.90
2022-08-14T01:30:56.230Z,4.30
2022-08-14T01:35:17.357Z,4.00
2022-08-14T01:38:15.516Z,4.10
2022-08-14T01:41:48.726Z,4.30
2022-08-14T01:45:25.192Z,4.20
2022-08-14T01:48:54.377Z,4.60
2022-08-14T01:52:33.978Z,4.40
2022-08-14T01:56:18.413Z,4.60
2022-08-14T01:59:46.481Z,3.90
2022-08-14T02:03:16.742Z,4.00
2022-08-14T02:06:44.196Z,4.80
2022-08-14T02:10:16.153Z,4.00
2022-08-14T02:13:45.272Z,4.70
2022-08-14T02:17:14.665Z,4.40
2022-08-14T02:20:42.184Z,3.50
2022-08-14T02:24:39.523Z,4.10
2022-08-14T02:28:23.038Z,4.10
2022-08-14T02:31:49.659Z,4.00
2022-08-14T02:35:21.945Z,4.60
2022-08-14T02:38:54.793Z,4.00
2022-08-14T02:42:37.072Z,3.90
2022-08-14T02:46:05.626Z,3.90
2022-08-14T02:49:34.325Z,3.90
2022-08-14T02:53:03.384Z,4.00
2022-08-14T02:57:16.476Z,4.40
2022-08-14T03:00:19.666Z,4.30
2022-08-14T03:03:50.055Z,4.60
2022-08-14T03:07:18.919Z,4.10
2022-08-14T03:10:49.025Z,3.90
2022-08-14T03:14:17.929Z,4.20
2022-08-14T03:17:58.368Z,3.80
2022-08-14T03:21:27.893Z,4.10
2022-08-14T03:24:55.174Z,4.80
2022-08-14T03:28:29.574Z,4.60
2022-08-14T03:32:01.238Z,4.20
2022-08-14T03:35:37.459Z,4.00
2022-08-14T03:39:21.747Z,3.80
2022-08-14T03:42:51.024Z,4.10
2022-08-14T03:46:52.984Z,4.30
2022-08-14T03:50:11.848Z,4.30
2022-08-14T03:53:39.992Z,3.80
2022-08-14T03:57:09.712Z,4.50
2022-08-14T04:00:43.318Z,4.40
2022-08-14T04:04:13.796Z,4.20
2022-08-14T04:07:49.687Z,4.50
2022-08-14T04:11:27.873Z,4.00
2022-08-14T04:14:55.158Z,4.00
2022-08-14T04:18:22.239Z,4.40
2022-08-14T04:22:02.133Z,3.90
2022-08-14T04:25:34.129Z,4.10
2022-08-14T04:29:15.071Z,4.30
2022-08-14T04:32:58.579Z,4.30
2022-08-14T04:36:29.367Z,4.70
2022-08-14T04:40:15.212Z,3.80
2022-08-14T04:43:43.316Z,4.00
2022-08-14T04:47:30.962Z,4.10
2022-08-14T04:50:58.998Z,4.40
2022-08-14T04:54:27.143Z,4.50
2022-08-14T04:57:54.259Z,4.50
2022-08-14T05:01:22.121Z,4.30
2022-08-14T05:04:57.207Z,4.50
2022-08-14T05:08:32.264Z,4.50
2022-08-14T05:13:10.949Z,5.20
2022-08-14T05:16:03.153Z,4.70
2022-08-14T05:19:44.167Z,4.20
2022-08-14T05:23:13.993Z,4.80
2022-08-14T05:26:42.773Z,4.60
2022-08-14T05:33:43.973Z,4.50
2022-08-14T05:37:22.941Z,4.70
2022-08-14T05:40:52.076Z,4.10
2022-08-14T05:44:20.517Z,5.30
2022-08-14T05:47:50.832Z,4.30
2022-08-14T05:51:19.276Z,4.70
2022-08-14T05:54:46.211Z,4.60
2022-08-14T05:58:14.645Z,5.30
2022-08-14T06:01:45.581Z,4.90
2022-08-14T06:05:14.122Z,5.10
2022-08-14T06:08:42.522Z,5.10
2022-08-14T06:12:12.114Z,4.90
2022-08-14T06:15:39.994Z,5.00
2022-08-14T06:19:07.378Z,4.80
2022-08-14T06:22:44.077Z,4.60
2022-08-14T06:26:14.003Z,4.30
2022-08-14T06:29:44.268Z,4.00
2022-08-14T06:33:11.775Z,4.10
2022-08-14T06:36:43.060Z,3.90
2022-08-14T06:40:25.754Z,3.70
2022-08-14T06:43:56.139Z,3.60
2022-08-14T06:47:24.419Z,4.00
2022-08-14T06:50:52.952Z,4.20
2022-08-14T06:54:20.527Z,3.60
2022-08-14T06:57:50.618Z,3.70
2022-08-14T07:01:35.184Z,3.50
2022-08-14T07:05:23.139Z,3.90
2022-08-14T07:08:52.772Z,4.20
2022-08-14T07:12:52.102Z,4.70
2022-08-14T07:16:13.257Z,5.50
2022-08-14T07:19:42.213Z,4.80
2022-08-14T07:23:19.948Z,5.10
2022-08-14T07:26:49.363Z,5.70
2022-08-14T07:30:34.454Z,5.00
2022-08-14T07:34:04.175Z,5.80
2022-08-14T07:37:31.616Z,5.30
2022-08-14T07:40:59.988Z,5.20
2022-08-14T07:44:32.826Z,4.70
2022-08-14T07:48:16.467Z,4.50
2022-08-14T07:51:44.400Z,5.20
2022-08-14T07:55:14.045Z,5.20
2022-08-14T07:58:51.315Z,4.40
2022-08-14T08:02:21.834Z,5.40
2022-08-14T08:05:52.714Z,4.80
2022-08-14T08:09:23.651Z,5.00
2022-08-14T08:12:51.646Z,4.80
2022-08-14T08:16:22.059Z,4.80
2022-08-14T08:19:51.575Z,4.60
2022-08-14T08:23:20.576Z,4.90
2022-08-14T08:26:50.269Z,5.20
2022-08-14T08:30:18.821Z,4.80
2022-08-14T08:33:52.788Z,4.40
2022-08-14T08:37:21.488Z,4.70
2022-08-14T08:40:56.963Z,4.20
2022-08-14T08:44:34.483Z,4.60
2022-08-14T08:48:03.848Z,4.20
2022-08-14T08:51:48.670Z,4.50
2022-08-14T08:55:18.531Z,4.70
2022-08-14T08:58:51.754Z,4.20
2022-08-14T09:02:20.169Z,3.80
2022-08-14T09:05:56.653Z,3.70
2022-08-14T09:09:33.092Z,3.60
2022-08-14T09:13:02.849Z,3.10
2022-08-14T09:16:35.730Z,3.50
2022-08-14T09:20:04.082Z,3.10
2022-08-14T09:23:35.182Z,3.50
2022-08-14T09:27:22.671Z,3.30
2022-08-14T09:30:55.246Z,3.60
2022-08-14T09:34:58.058Z,3.10
2022-08-14T09:38:35.096Z,3.10
2022-08-14T09:42:34.333Z,3.30
2022-08-14T09:46:08.842Z,3.50
2022-08-14T09:49:40.111Z,3.40
2022-08-14T09:53:17.737Z,3.50
2022-08-14T09:56:56.694Z,3.10
2022-08-14T10:00:43.671Z,3.10
2022-08-14T10:04:34.418Z,3.30
2022-08-14T10:08:04.934Z,3.30
2022-08-14T10:11:45.876Z,3.60
2022-08-14T10:15:21.408Z,3.50
2022-08-14T10:19:02.692Z,3.20
2022-08-14T10:23:21.758Z,3.50
2022-08-14T10:26:22.357Z,3.80
2022-08-14T10:29:54.745Z,4.20
2022-08-14T10:33:31.331Z,3.60
2022-08-14T10:37:14.140Z,4.20
2022-08-14T10:40:52.089Z,4.10
2022-08-14T10:44:34.126Z,4.40
2022-08-14T10:48:24.544Z,4.10
2022-08-14T10:52:10.350Z,3.90
2022-08-14T10:55:44.929Z,4.00
2022-08-14T10:59:13.732Z,4.70
2022-08-14T11:02:54.360Z,4.30
2022-08-14T11:06:24.686Z,4.40
2022-08-14T11:09:59.814Z,4.60
2022-08-14T11:13:30.758Z,4.50
2022-08-14T11:16:58.541Z,5.00
2022-08-14T11:20:27.864Z,5.00
2022-08-14T11:23:58.243Z,4.80
2022-08-14T11:27:33.509Z,4.90
2022-08-14T11:31:05.385Z,4.80
2022-08-14T11:34:34.927Z,5.90
2022-08-14T11:38:13.141Z,5.60
2022-08-14T11:41:55.870Z,5.90
2022-08-14T11:45:25.243Z,5.90
2022-08-14T11:49:04.047Z,5.60
2022-08-14T11:52:40.293Z,5.80
2022-08-14T11:56:29.588Z,5.80
2022-08-14T12:00:08.756Z,6.40
2022-08-14T12:03:57.315Z,6.00
2022-08-14T12:07:27.491Z,5.80
2022-08-14T12:11:10.196Z,5.80
2022-08-14T12:15:06.830Z,6.10
2022-08-14T12:18:37.264Z,5.80
2022-08-14T12:22:07.636Z,5.90
2022-08-14T12:25:36.935Z,6.20
2022-08-14T12:29:13.179Z,6.30
2022-08-14T12:32:47.758Z,6.80
2022-08-14T12:36:25.372Z,6.60
2022-08-14T12:39:54.044Z,6.50
2022-08-14T12:43:27.213Z,6.20
2022-08-14T12:47:07.718Z,6.40
2022-08-14T12:50:49.678Z,6.70
2022-08-14T12:54:27.184Z,7.20
2022-08-14T12:58:35.469Z,6.60
2022-08-14T13:02:05.571Z,6.80
2022-08-14T13:05:39.725Z,6.40
2022-08-14T13:09:14.364Z,7.00
2022-08-14T13:13:12.109Z,6.70
2022-08-14T13:16:38.621Z,6.50
2022-08-14T13:20:10.489Z,6.40
2022-08-14T13:23:43.124Z,6.40
2022-08-14T13:27:15.348Z,6.80
2022-08-14T13:30:50.947Z,6.40
2022-08-14T13:34:24.632Z,6.50
2022-08-14T13:37:54.260Z,6.30
2022-08-14T13:41:31.895Z,7.00
2022-08-14T13:45:09.258Z,6.20
2022-08-14T13:48:37.004Z,6.10
2022-08-14T13:52:14.605Z,6.30
2022-08-14T13:55:57.486Z,6.40
2022-08-14T13:59:37.801Z,6.70
2022-08-14T14:03:08.076Z,7.10
2022-08-14T14:06:37.248Z,7.10
2022-08-14T14:10:10.238Z,7.10
2022-08-14T14:17:14.294Z,8.20
2022-08-14T14:20:44.907Z,8.30
2022-08-14T14:24:20.516Z,8.70
2022-08-14T14:27:53.473Z,8.00
2022-08-14T14:31:29.480Z,7.90
2022-08-14T14:35:01.742Z,8.20
2022-08-14T14:38:32.750Z,7.60
2022-08-14T14:42:06.137Z,7.40
2022-08-14T14:45:35.475Z,7.90
2022-08-14T14:49:11.555Z,7.90
2022-08-14T14:52:42.714Z,7.40
2022-08-14T14:56:50.878Z,7.70
2022-08-14T14:59:57.892Z,7.70
2022-08-14T15:03:25.699Z,8.10
2022-08-14T15:06:55.686Z,7.30
2022-08-14T15:10:27.963Z,7.60
2022-08-14T15:14:00.116Z,8.10
2022-08-14T15:17:35.314Z,7.60
2022-08-14T15:21:10.912Z,8.00
2022-08-14T15:24:53.122Z,8.00
2022-08-14T15:28:23.929Z,8.20
2022-08-14T15:31:55.168Z,8.30
2022-08-14T15:35:33.865Z,8.40
2022-08-14T15:39:06.794Z,8.30
2022-08-14T15:42:43.863Z,8.10
2022-08-14T15:46:41.485Z,7.90
2022-08-14T15:50:05.285Z,8.30
2022-08-14T15:53:38.393Z,8.10
2022-08-14T15:57:11.541Z,8.20
2022-08-14T16:00:57.633Z,8.90
2022-08-14T16:04:27.678Z,8.30
2022-08-14T16:07:56.231Z,8.40
2022-08-14T16:11:26.595Z,6.80
2022-08-14T16:14:59.033Z,6.20
2022-08-14T16:18:28.725Z,6.40
2022-08-14T16:22:57.690Z,6.80
2022-08-14T16:25:52.676Z,8.10
2022-08-14T16:29:21.094Z,5.00
2022-08-14T16:32:55.411Z,5.80
2022-08-14T16:36:31.276Z,5.30
2022-08-14T16:40:00.520Z,5.20
2022-08-14T16:43:28.447Z,5.30
2022-08-14T16:46:58.588Z,5.70
2022-08-14T16:50:40.734Z,5.60
2022-08-14T16:54:33.833Z,5.80
2022-08-14T16:58:10.730Z,5.30
2022-08-14T17:01:43.561Z,5.50
2022-08-14T17:05:27.154Z,5.50
2022-08-14T17:09:06.883Z,6.10
2022-08-14T17:12:38.484Z,5.90
2022-08-14T17:16:24.540Z,6.20
2022-08-14T17:20:33.892Z,6.20
2022-08-14T17:23:57.622Z,6.60
2022-08-14T17:27:29.266Z,6.30
2022-08-14T17:31:02.397Z,6.30
2022-08-14T17:34:48.588Z,6.80
2022-08-14T17:38:39.505Z,6.60
2022-08-14T17:42:13.606Z,7.60
2022-08-14T17:45:48.439Z,7.80
2022-08-14T17:49:24.222Z,7.90
2022-08-14T17:52:55.911Z,8.00
2022-08-14T17:56:29.182Z,8.30
2022-08-14T18:00:02.457Z,8.00
2022-08-14T18:03:44.917Z,7.70
2022-08-14T18:07:59.571Z,8.70
2022-08-14T18:11:21.154Z,8.70
2022-08-14T18:15:01.263Z,8.70
2022-08-14T18:18:39.573Z,8.90
2022-08-14T18:22:39.423Z,10.00
2022-08-14T18:26:36.289Z,9.30
2022-08-14T18:30:31.881Z,10.00
2022-08-14T18:34:12.228Z,9.90
2022-08-14T18:38:25.973Z,9.40
2022-08-14T18:42:49.341Z,9.00
2022-08-14T18:46:59.746Z,11.90
2022-08-14T18:50:25.995Z,9.80
2022-08-14T18:53:59.355Z,9.00
2022-08-14T18:57:40.486Z,8.60
2022-08-14T19:01:25.378Z,8.90
2022-08-14T19:05:15.346Z,8.00
2022-08-14T19:08:57.202Z,8.00
2022-08-14T19:13:11.763Z,8.10
2022-08-14T19:16:54.255Z,8.00
2022-08-14T19:20:35.263Z,7.50
2022-08-14T19:24:27.213Z,8.20
2022-08-14T19:28:30.961Z,7.60
2022-08-14T19:32:51.661Z,8.00
2022-08-14T19:36:31.743Z,8.10
2022-08-14T19:40:20.166Z,8.60
2022-08-14T19:43:57.481Z,8.40
2022-08-14T19:47:41.559Z,8.00
2022-08-14T19:51:17.903Z,8.60
2022-08-14T19:54:47.294Z,8.60
2022-08-14T19:58:19.077Z,9.00
2022-08-14T20:02:05.912Z,8.50
2022-08-14T20:05:45.463Z,8.20
2022-08-14T20:11:06.793Z,9.00
2022-08-14T20:13:11.522Z,8.00
2022-08-14T20:16:46.481Z,8.50
2022-08-14T20:20:31.869Z,9.30
2022-08-14T20:24:41.395Z,8.70
2022-08-14T20:28:30.325Z,9.10
2022-08-14T20:32:07.908Z,8.60
2022-08-14T20:35:52.320Z,8.50
2022-08-14T20:39:34.333Z,8.70
2022-08-14T20:43:25.172Z,9.50
2022-08-14T20:47:01.712Z,10.40
2022-08-14T20:50:32.344Z,9.90
2022-08-14T20:54:03.198Z,9.60
2022-08-14T20:57:44.296Z,10.00
2022-08-14T21:01:39.193Z,9.70
2022-08-14T21:05:17.186Z,10.10
2022-08-14T21:08:55.214Z,10.30
2022-08-14T21:12:34.718Z,10.40
2022-08-14T21:16:05.502Z,10.00
2022-08-14T21:19:53.785Z,11.10
2022-08-14T21:23:23.715Z,10.40
2022-08-14T21:27:12.084Z,10.00
2022-08-14T21:30:55.461Z,10.00
2022-08-14T21:34:31.760Z,10.20
2022-08-14T21:38:00.061Z,10.20
2022-08-14T21:41:42.463Z,9.90
2022-08-14T21:45:16.925Z,9.80
2022-08-14T21:48:44.419Z,9.90
2022-08-14T21:52:50.758Z,9.50
2022-08-14T21:56:06.520Z,9.40
2022-08-14T21:59:41.026Z,9.40
2022-08-14T22:03:17.620Z,10.70
2022-08-14T22:06:44.987Z,9.70
2022-08-14T22:10:24.451Z,9.90
2022-08-14T22:13:51.991Z,10.00
2022-08-14T22:17:23.782Z,10.40
2022-08-14T22:20:53.676Z,9.90
2022-08-14T22:24:37.665Z,10.60
2022-08-14T22:28:09.936Z,10.00
2022-08-14T22:31:40.191Z,10.60
2022-08-14T22:35:15.687Z,10.20
2022-08-14T22:38:49.701Z,10.30
2022-08-14T22:42:19.224Z,10.10
2022-08-14T22:45:55.632Z,10.10
2022-08-14T22:50:31.672Z,10.60
2022-08-14T22:53:17.928Z,11.30
2022-08-14T22:56:49.983Z,12.10
2022-08-14T23:00:25.395Z,10.50
2022-08-14T23:03:57.142Z,10.60
2022-08-14T23:08:58.573Z,11.20
2022-08-14T23:11:15.650Z,11.10
2022-08-14T23:14:44.434Z,11.20
2022-08-14T23:18:13.251Z,11.60
2022-08-14T23:21:46.258Z,11.20
2022-08-14T23:25:57.014Z,11.70
2022-08-14T23:29:11.743Z,10.90
2022-08-14T23:32:41.269Z,11.70
2022-08-14T23:36:32.783Z,11.60
2022-08-14T23:40:26.351Z,11.60
2022-08-14T23:43:57.778Z,11.50
2022-08-14T23:47:31.727Z,11.50
2022-08-14T23:51:21.861Z,11.60
2022-08-14T23:54:50.924Z,12.00
2022-08-14T23:58:21.353Z,11.00
